sensor_id;sensor_type;location;lat;lon;timestamp;pressure;altitude;pressure_sealevel;temperature
24639;BMP180;1641;51.306;12.384;2022-11-15T00:00:49;99995.00;;;9.60
24639;BMP180;1641;51.306;12.384;2022-11-15T00:03:18;100008.00;;;9.20
24639;BMP180;1641;51.306;12.384;2022-11-15T00:05:44;99987.00;;;8.90
24639;BMP180;1641;51.306;12.384;2022-11-15T00:08:10;100000.00;;;9.10
24639;BMP180;1641;51.306;12.384;2022-11-15T00:10:36;100008.00;;;9.00
24639;BMP180;1641;51.306;12.384;2022-11-15T00:13:09;100002.00;;;8.90
24639;BMP180;1641;51.306;12.384;2022-11-15T00:15:36;99981.00;;;9.10
24639;BMP180;1641;51.306;12.384;2022-11-15T00:18:03;100002.00;;;9.20
24639;BMP180;1641;51.306;12.384;2022-11-15T00:20:28;99968.00;;;9.30
24639;BMP180;1641;51.306;12.384;2022-11-15T00:22:54;99949.00;;;9.40
24639;BMP180;1641;51.306;12.384;2022-11-15T00:25:19;99960.00;;;9.50
24639;BMP180;1641;51.306;12.384;2022-11-15T00:27:44;99981.00;;;9.40
24639;BMP180;1641;51.306;12.384;2022-11-15T00:30:10;99977.00;;;9.30
24639;BMP180;1641;51.306;12.384;2022-11-15T00:32:36;99982.00;;;9.40
24639;BMP180;1641;51.306;12.384;2022-11-15T00:35:01;99948.00;;;9.60
24639;BMP180;1641;51.306;12.384;2022-11-15T00:37:26;99990.00;;;9.70
24639;BMP180;1641;51.306;12.384;2022-11-15T00:39:52;99994.00;;;9.60
24639;BMP180;1641;51.306;12.384;2022-11-15T00:42:18;99977.00;;;9.50
24639;BMP180;1641;51.306;12.384;2022-11-15T00:44:43;99992.00;;;9.60
24639;BMP180;1641;51.306;12.384;2022-11-15T00:47:10;99996.00;;;9.30
24639;BMP180;1641;51.306;12.384;2022-11-15T00:49:36;99987.00;;;9.50
24639;BMP180;1641;51.306;12.384;2022-11-15T00:52:02;99993.00;;;9.50
24639;BMP180;1641;51.306;12.384;2022-11-15T00:54:28;99984.00;;;9.40
24639;BMP180;1641;51.306;12.384;2022-11-15T00:56:54;99984.00;;;9.60
24639;BMP180;1641;51.306;12.384;2022-11-15T00:59:19;99978.00;;;9.70
24639;BMP180;1641;51.306;12.384;2022-11-15T01:01:45;99944.00;;;9.60
24639;BMP180;1641;51.306;12.384;2022-11-15T01:04:10;99985.00;;;9.70
24639;BMP180;1641;51.306;12.384;2022-11-15T01:06:35;99982.00;;;9.50
24639;BMP180;1641;51.306;12.384;2022-11-15T01:09:01;99978.00;;;9.40
24639;BMP180;1641;51.306;12.384;2022-11-15T01:11:26;99979.00;;;9.60
24639;BMP180;1641;51.306;12.384;2022-11-15T01:13:51;99972.00;;;9.40
24639;BMP180;1641;51.306;12.384;2022-11-15T01:16:18;99956.00;;;9.50
24639;BMP180;1641;51.306;12.384;2022-11-15T01:18:44;99979.00;;;9.60
24639;BMP180;1641;51.306;12.384;2022-11-15T01:21:13;99914.00;;;9.80
24639;BMP180;1641;51.306;12.384;2022-11-15T01:23:39;99969.00;;;9.50
24639;BMP180;1641;51.306;12.384;2022-11-15T01:26:06;99970.00;;;9.60
24639;BMP180;1641;51.306;12.384;2022-11-15T01:28:33;99978.00;;;9.50
24639;BMP180;1641;51.306;12.384;2022-11-15T01:31:03;99976.00;;;9.60
24639;BMP180;1641;51.306;12.384;2022-11-15T01:33:29;99941.00;;;9.50
24639;BMP180;1641;51.306;12.384;2022-11-15T01:35:58;99957.00;;;9.20
24639;BMP180;1641;51.306;12.384;2022-11-15T01:38:23;99971.00;;;9.10
24639;BMP180;1641;51.306;12.384;2022-11-15T01:40:49;99972.00;;;8.90
24639;BMP180;1641;51.306;12.384;2022-11-15T01:43:25;99965.00;;;9.20
24639;BMP180;1641;51.306;12.384;2022-11-15T01:46:22;99952.00;;;9.50
24639;BMP180;1641;51.306;12.384;2022-11-15T01:48:50;99956.00;;;9.60
24639;BMP180;1641;51.306;12.384;2022-11-15T01:51:17;99955.00;;;9.60
24639;BMP180;1641;51.306;12.384;2022-11-15T01:53:46;99946.00;;;9.40
24639;BMP180;1641;51.306;12.384;2022-11-15T01:56:22;99860.00;;;9.50
24639;BMP180;1641;51.306;12.384;2022-11-15T01:58:48;99942.00;;;9.40
24639;BMP180;1641;51.306;12.384;2022-11-15T02:01:14;99949.00;;;9.40
24639;BMP180;1641;51.306;12.384;2022-11-15T02:03:51;99899.00;;;9.40
24639;BMP180;1641;51.306;12.384;2022-11-15T02:06:18;99939.00;;;9.40
24639;BMP180;1641;51.306;12.384;2022-11-15T02:08:44;99940.00;;;9.50
24639;BMP180;1641;51.306;12.384;2022-11-15T02:11:09;99910.00;;;9.50
24639;BMP180;1641;51.306;12.384;2022-11-15T02:13:38;99884.00;;;9.30
24639;BMP180;1641;51.306;12.384;2022-11-15T02:19:21;99858.00;;;8.90
24639;BMP180;1641;51.306;12.384;2022-11-15T02:25:00;99919.00;;;9.50
24639;BMP180;1641;51.306;12.384;2022-11-15T02:27:53;99916.00;;;9.70
24639;BMP180;1641;51.306;12.384;2022-11-15T02:30:55;99904.00;;;9.60
24639;BMP180;1641;51.306;12.384;2022-11-15T02:36:10;99902.00;;;9.40
24639;BMP180;1641;51.306;12.384;2022-11-15T02:44:06;99843.00;;;9.40
24639;BMP180;1641;51.306;12.384;2022-11-15T02:46:51;99893.00;;;9.70
24639;BMP180;1641;51.306;12.384;2022-11-15T02:49:43;99864.00;;;9.80
24639;BMP180;1641;51.306;12.384;2022-11-15T02:52:17;99887.00;;;9.80
24639;BMP180;1641;51.306;12.384;2022-11-15T02:54:43;99892.00;;;9.80
24639;BMP180;1641;51.306;12.384;2022-11-15T02:57:14;99895.00;;;9.80
24639;BMP180;1641;51.306;12.384;2022-11-15T02:59:59;99834.00;;;9.60
24639;BMP180;1641;51.306;12.384;2022-11-15T03:02:30;99881.00;;;9.60
24639;BMP180;1641;51.306;12.384;2022-11-15T03:11:15;99887.00;;;9.70
24639;BMP180;1641;51.306;12.384;2022-11-15T03:16:40;99887.00;;;9.40
24639;BMP180;1641;51.306;12.384;2022-11-15T03:19:13;99851.00;;;9.50
24639;BMP180;1641;51.306;12.384;2022-11-15T03:21:40;99839.00;;;9.40
24639;BMP180;1641;51.306;12.384;2022-11-15T03:24:07;99834.00;;;9.60
24639;BMP180;1641;51.306;12.384;2022-11-15T03:26:35;99889.00;;;9.60
24639;BMP180;1641;51.306;12.384;2022-11-15T03:29:12;99879.00;;;9.60
24639;BMP180;1641;51.306;12.384;2022-11-15T03:31:47;99880.00;;;9.70
24639;BMP180;1641;51.306;12.384;2022-11-15T03:36:58;99854.00;;;9.80
24639;BMP180;1641;51.306;12.384;2022-11-15T03:39:24;99869.00;;;9.70
24639;BMP180;1641;51.306;12.384;2022-11-15T03:42:03;99875.00;;;9.80
24639;BMP180;1641;51.306;12.384;2022-11-15T03:45:04;99875.00;;;9.90
24639;BMP180;1641;51.306;12.384;2022-11-15T03:47:38;99833.00;;;10.10
24639;BMP180;1641;51.306;12.384;2022-11-15T03:50:11;99852.00;;;9.90
24639;BMP180;1641;51.306;12.384;2022-11-15T03:52:37;99867.00;;;9.80
24639;BMP180;1641;51.306;12.384;2022-11-15T03:55:04;99873.00;;;9.90
24639;BMP180;1641;51.306;12.384;2022-11-15T03:57:31;99842.00;;;10.00
24639;BMP180;1641;51.306;12.384;2022-11-15T03:59:56;99849.00;;;9.90
24639;BMP180;1641;51.306;12.384;2022-11-15T04:02:21;99820.00;;;9.90
24639;BMP180;1641;51.306;12.384;2022-11-15T04:04:47;99841.00;;;10.00
24639;BMP180;1641;51.306;12.384;2022-11-15T04:07:15;99873.00;;;9.90
24639;BMP180;1641;51.306;12.384;2022-11-15T04:09:40;99869.00;;;9.90
24639;BMP180;1641;51.306;12.384;2022-11-15T04:12:24;99866.00;;;9.90
24639;BMP180;1641;51.306;12.384;2022-11-15T04:15:00;99870.00;;;9.90
24639;BMP180;1641;51.306;12.384;2022-11-15T04:17:39;99863.00;;;9.90
24639;BMP180;1641;51.306;12.384;2022-11-15T04:20:28;99869.00;;;10.10
24639;BMP180;1641;51.306;12.384;2022-11-15T04:23:16;99867.00;;;9.80
24639;BMP180;1641;51.306;12.384;2022-11-15T04:26:06;99868.00;;;9.70
24639;BMP180;1641;51.306;12.384;2022-11-15T04:28:32;99868.00;;;9.80
24639;BMP180;1641;51.306;12.384;2022-11-15T04:30:57;99852.00;;;9.80
24639;BMP180;1641;51.306;12.384;2022-11-15T04:33:23;99865.00;;;9.90
24639;BMP180;1641;51.306;12.384;2022-11-15T04:35:51;99866.00;;;9.90
24639;BMP180;1641;51.306;12.384;2022-11-15T04:38:36;99871.00;;;9.90
24639;BMP180;1641;51.306;12.384;2022-11-15T04:41:02;99864.00;;;9.70
24639;BMP180;1641;51.306;12.384;2022-11-15T04:43:28;99859.00;;;9.70
24639;BMP180;1641;51.306;12.384;2022-11-15T04:45:54;99804.00;;;9.90
24639;BMP180;1641;51.306;12.384;2022-11-15T04:48:19;99865.00;;;10.00
24639;BMP180;1641;51.306;12.384;2022-11-15T04:50:47;99869.00;;;9.90
24639;BMP180;1641;51.306;12.384;2022-11-15T04:53:13;99817.00;;;10.00
24639;BMP180;1641;51.306;12.384;2022-11-15T04:55:38;99854.00;;;9.90
24639;BMP180;1641;51.306;12.384;2022-11-15T04:58:03;99858.00;;;9.90
24639;BMP180;1641;51.306;12.384;2022-11-15T05:00:29;99833.00;;;9.70
24639;BMP180;1641;51.306;12.384;2022-11-15T05:02:56;99793.00;;;9.50
24639;BMP180;1641;51.306;12.384;2022-11-15T05:05:40;99804.00;;;9.90
24639;BMP180;1641;51.306;12.384;2022-11-15T05:08:05;99858.00;;;9.80
24639;BMP180;1641;51.306;12.384;2022-11-15T05:10:31;99819.00;;;10.00
24639;BMP180;1641;51.306;12.384;2022-11-15T05:12:56;99784.00;;;9.80
24639;BMP180;1641;51.306;12.384;2022-11-15T05:15:21;99836.00;;;9.30
24639;BMP180;1641;51.306;12.384;2022-11-15T05:17:47;99826.00;;;9.40
24639;BMP180;1641;51.306;12.384;2022-11-15T05:20:12;99796.00;;;9.50
24639;BMP180;1641;51.306;12.384;2022-11-15T05:22:38;99844.00;;;9.50
24639;BMP180;1641;51.306;12.384;2022-11-15T05:25:04;99783.00;;;9.60
24639;BMP180;1641;51.306;12.384;2022-11-15T05:27:29;99838.00;;;9.50
24639;BMP180;1641;51.306;12.384;2022-11-15T05:29:54;99804.00;;;9.60
24639;BMP180;1641;51.306;12.384;2022-11-15T05:32:23;99813.00;;;9.60
24639;BMP180;1641;51.306;12.384;2022-11-15T05:34:52;99765.00;;;9.60
24639;BMP180;1641;51.306;12.384;2022-11-15T05:37:17;99839.00;;;9.60
24639;BMP180;1641;51.306;12.384;2022-11-15T05:39:52;99812.00;;;9.80
24639;BMP180;1641;51.306;12.384;2022-11-15T05:42:17;99831.00;;;9.80
24639;BMP180;1641;51.306;12.384;2022-11-15T05:44:46;99822.00;;;9.80
24639;BMP180;1641;51.306;12.384;2022-11-15T05:47:17;99827.00;;;9.70
24639;BMP180;1641;51.306;12.384;2022-11-15T05:49:45;99827.00;;;9.60
24639;BMP180;1641;51.306;12.384;2022-11-15T05:52:13;99822.00;;;9.60
24639;BMP180;1641;51.306;12.384;2022-11-15T05:54:40;99834.00;;;9.60
24639;BMP180;1641;51.306;12.384;2022-11-15T05:57:06;99819.00;;;9.60
24639;BMP180;1641;51.306;12.384;2022-11-15T05:59:31;99824.00;;;9.60
24639;BMP180;1641;51.306;12.384;2022-11-15T06:05:08;99746.00;;;9.80
24639;BMP180;1641;51.306;12.384;2022-11-15T06:07:34;99763.00;;;9.30
24639;BMP180;1641;51.306;12.384;2022-11-15T06:09:59;99750.00;;;9.80
24639;BMP180;1641;51.306;12.384;2022-11-15T06:12:24;99772.00;;;9.90
24639;BMP180;1641;51.306;12.384;2022-11-15T06:14:50;99765.00;;;9.80
24639;BMP180;1641;51.306;12.384;2022-11-15T06:17:15;99823.00;;;9.90
24639;BMP180;1641;51.306;12.384;2022-11-15T06:19:43;99771.00;;;9.80
24639;BMP180;1641;51.306;12.384;2022-11-15T06:22:09;99829.00;;;9.70
24639;BMP180;1641;51.306;12.384;2022-11-15T06:24:34;99826.00;;;9.40
24639;BMP180;1641;51.306;12.384;2022-11-15T06:27:00;99753.00;;;9.20
24639;BMP180;1641;51.306;12.384;2022-11-15T06:29:25;99823.00;;;9.30
24639;BMP180;1641;51.306;12.384;2022-11-15T06:31:50;99824.00;;;9.30
24639;BMP180;1641;51.306;12.384;2022-11-15T06:34:16;99817.00;;;9.20
24639;BMP180;1641;51.306;12.384;2022-11-15T06:36:41;99778.00;;;9.20
24639;BMP180;1641;51.306;12.384;2022-11-15T06:39:07;99798.00;;;9.50
24639;BMP180;1641;51.306;12.384;2022-11-15T06:41:35;99819.00;;;9.70
24639;BMP180;1641;51.306;12.384;2022-11-15T06:44:02;99775.00;;;9.90
24639;BMP180;1641;51.306;12.384;2022-11-15T06:46:27;99837.00;;;9.80
24639;BMP180;1641;51.306;12.384;2022-11-15T06:48:53;99834.00;;;9.70
24639;BMP180;1641;51.306;12.384;2022-11-15T06:51:19;99848.00;;;9.50
24639;BMP180;1641;51.306;12.384;2022-11-15T06:53:44;99835.00;;;9.40
24639;BMP180;1641;51.306;12.384;2022-11-15T06:56:09;99838.00;;;9.40
24639;BMP180;1641;51.306;12.384;2022-11-15T06:58:35;99848.00;;;9.60
24639;BMP180;1641;51.306;12.384;2022-11-15T07:01:07;99842.00;;;9.80
24639;BMP180;1641;51.306;12.384;2022-11-15T07:03:41;99840.00;;;10.10
24639;BMP180;1641;51.306;12.384;2022-11-15T07:06:08;99778.00;;;10.10
24639;BMP180;1641;51.306;12.384;2022-11-15T07:08:35;99805.00;;;10.20
24639;BMP180;1641;51.306;12.384;2022-11-15T07:11:03;99844.00;;;10.30
24639;BMP180;1641;51.306;12.384;2022-11-15T07:13:30;99824.00;;;10.30
24639;BMP180;1641;51.306;12.384;2022-11-15T07:16:02;99845.00;;;10.20
24639;BMP180;1641;51.306;12.384;2022-11-15T07:18:27;99800.00;;;9.80
24639;BMP180;1641;51.306;12.384;2022-11-15T07:20:52;99806.00;;;9.70
24639;BMP180;1641;51.306;12.384;2022-11-15T07:23:18;99839.00;;;9.80
24639;BMP180;1641;51.306;12.384;2022-11-15T07:25:43;99839.00;;;10.00
24639;BMP180;1641;51.306;12.384;2022-11-15T07:28:08;99832.00;;;10.30
24639;BMP180;1641;51.306;12.384;2022-11-15T07:30:34;99805.00;;;10.40
24639;BMP180;1641;51.306;12.384;2022-11-15T07:33:00;99848.00;;;10.80
24639;BMP180;1641;51.306;12.384;2022-11-15T07:35:26;99805.00;;;11.30
24639;BMP180;1641;51.306;12.384;2022-11-15T07:38:02;99845.00;;;12.00
24639;BMP180;1641;51.306;12.384;2022-11-15T07:40:29;99850.00;;;12.90
24639;BMP180;1641;51.306;12.384;2022-11-15T07:43:02;99846.00;;;14.40
24639;BMP180;1641;51.306;12.384;2022-11-15T07:45:28;99809.00;;;15.70
24639;BMP180;1641;51.306;12.384;2022-11-15T07:47:54;99854.00;;;17.60
24639;BMP180;1641;51.306;12.384;2022-11-15T07:50:22;99846.00;;;19.10
24639;BMP180;1641;51.306;12.384;2022-11-15T07:52:47;99837.00;;;19.20
24639;BMP180;1641;51.306;12.384;2022-11-15T07:55:13;99848.00;;;17.40
24639;BMP180;1641;51.306;12.384;2022-11-15T07:57:38;99849.00;;;18.10
24639;BMP180;1641;51.306;12.384;2022-11-15T08:00:05;99800.00;;;18.90
24639;BMP180;1641;51.306;12.384;2022-11-15T08:02:30;99853.00;;;18.70
24639;BMP180;1641;51.306;12.384;2022-11-15T08:04:56;99822.00;;;20.10
24639;BMP180;1641;51.306;12.384;2022-11-15T08:07:21;99830.00;;;21.40
24639;BMP180;1641;51.306;12.384;2022-11-15T08:09:47;99850.00;;;20.80
24639;BMP180;1641;51.306;12.384;2022-11-15T08:12:12;99851.00;;;20.00
24639;BMP180;1641;51.306;12.384;2022-11-15T08:14:37;99851.00;;;20.90
24639;BMP180;1641;51.306;12.384;2022-11-15T08:17:03;99860.00;;;21.20
24639;BMP180;1641;51.306;12.384;2022-11-15T08:19:28;99856.00;;;22.90
24639;BMP180;1641;51.306;12.384;2022-11-15T08:21:54;99858.00;;;22.70
24639;BMP180;1641;51.306;12.384;2022-11-15T08:24:19;99855.00;;;23.20
24639;BMP180;1641;51.306;12.384;2022-11-15T08:26:45;99859.00;;;22.80
24639;BMP180;1641;51.306;12.384;2022-11-15T08:29:11;99860.00;;;23.60
24639;BMP180;1641;51.306;12.384;2022-11-15T08:31:36;99858.00;;;24.20
24639;BMP180;1641;51.306;12.384;2022-11-15T08:34:02;99861.00;;;24.90
24639;BMP180;1641;51.306;12.384;2022-11-15T08:36:28;99835.00;;;25.10
24639;BMP180;1641;51.306;12.384;2022-11-15T08:38:54;99824.00;;;26.60
24639;BMP180;1641;51.306;12.384;2022-11-15T08:41:32;99820.00;;;27.40
24639;BMP180;1641;51.306;12.384;2022-11-15T08:43:58;99824.00;;;27.00
24639;BMP180;1641;51.306;12.384;2022-11-15T08:46:34;99862.00;;;27.00
24639;BMP180;1641;51.306;12.384;2022-11-15T08:48:59;99847.00;;;26.70
24639;BMP180;1641;51.306;12.384;2022-11-15T08:51:25;99822.00;;;26.70
24639;BMP180;1641;51.306;12.384;2022-11-15T08:53:50;99857.00;;;24.50
24639;BMP180;1641;51.306;12.384;2022-11-15T08:56:21;99853.00;;;22.20
24639;BMP180;1641;51.306;12.384;2022-11-15T08:58:46;99853.00;;;21.70
24639;BMP180;1641;51.306;12.384;2022-11-15T09:01:17;99845.00;;;19.00
24639;BMP180;1641;51.306;12.384;2022-11-15T09:03:43;99855.00;;;17.20
24639;BMP180;1641;51.306;12.384;2022-11-15T09:06:08;99858.00;;;16.10
24639;BMP180;1641;51.306;12.384;2022-11-15T09:08:34;99867.00;;;15.20
24639;BMP180;1641;51.306;12.384;2022-11-15T09:11:03;99863.00;;;15.10
24639;BMP180;1641;51.306;12.384;2022-11-15T09:13:28;99841.00;;;14.90
24639;BMP180;1641;51.306;12.384;2022-11-15T09:15:57;99858.00;;;14.90
24639;BMP180;1641;51.306;12.384;2022-11-15T09:18:23;99861.00;;;15.10
24639;BMP180;1641;51.306;12.384;2022-11-15T09:20:49;99853.00;;;15.30
24639;BMP180;1641;51.306;12.384;2022-11-15T09:23:14;99811.00;;;15.50
24639;BMP180;1641;51.306;12.384;2022-11-15T09:25:39;99851.00;;;15.40
24639;BMP180;1641;51.306;12.384;2022-11-15T09:28:08;99843.00;;;14.10
24639;BMP180;1641;51.306;12.384;2022-11-15T09:30:33;99812.00;;;13.80
24639;BMP180;1641;51.306;12.384;2022-11-15T09:32:58;99839.00;;;13.90
24639;BMP180;1641;51.306;12.384;2022-11-15T09:35:24;99813.00;;;14.30
24639;BMP180;1641;51.306;12.384;2022-11-15T09:37:49;99788.00;;;14.10
24639;BMP180;1641;51.306;12.384;2022-11-15T09:40:16;99848.00;;;14.20
24639;BMP180;1641;51.306;12.384;2022-11-15T09:45:53;99842.00;;;13.80
24639;BMP180;1641;51.306;12.384;2022-11-15T09:51:10;99803.00;;;13.50
24639;BMP180;1641;51.306;12.384;2022-11-15T09:53:49;99828.00;;;13.70
24639;BMP180;1641;51.306;12.384;2022-11-15T09:56:20;99834.00;;;13.40
24639;BMP180;1641;51.306;12.384;2022-11-15T10:04:42;99802.00;;;13.90
24639;BMP180;1641;51.306;12.384;2022-11-15T10:10:04;99821.00;;;14.30
24639;BMP180;1641;51.306;12.384;2022-11-15T10:12:27;99810.00;;;14.70
24639;BMP180;1641;51.306;12.384;2022-11-15T10:15:00;99807.00;;;14.60
24639;BMP180;1641;51.306;12.384;2022-11-15T10:20:29;99795.00;;;14.50
24639;BMP180;1641;51.306;12.384;2022-11-15T10:22:59;99788.00;;;14.30
24639;BMP180;1641;51.306;12.384;2022-11-15T10:25:30;99759.00;;;14.10
24639;BMP180;1641;51.306;12.384;2022-11-15T10:28:30;99788.00;;;14.00
24639;BMP180;1641;51.306;12.384;2022-11-15T10:30:57;99785.00;;;14.00
24639;BMP180;1641;51.306;12.384;2022-11-15T10:33:32;99781.00;;;13.90
24639;BMP180;1641;51.306;12.384;2022-11-15T10:36:16;99786.00;;;14.40
24639;BMP180;1641;51.306;12.384;2022-11-15T10:41:14;99780.00;;;14.50
24639;BMP180;1641;51.306;12.384;2022-11-15T10:43:40;99720.00;;;14.70
24639;BMP180;1641;51.306;12.384;2022-11-15T10:46:20;99771.00;;;14.90
24639;BMP180;1641;51.306;12.384;2022-11-15T10:48:45;99701.00;;;14.80
24639;BMP180;1641;51.306;12.384;2022-11-15T10:51:23;99712.00;;;14.70
24639;BMP180;1641;51.306;12.384;2022-11-15T10:53:54;99698.00;;;15.00
24639;BMP180;1641;51.306;12.384;2022-11-15T10:56:21;99707.00;;;15.60
24639;BMP180;1641;51.306;12.384;2022-11-15T10:58:56;99748.00;;;16.00
24639;BMP180;1641;51.306;12.384;2022-11-15T11:01:24;99747.00;;;15.30
24639;BMP180;1641;51.306;12.384;2022-11-15T11:06:28;99736.00;;;15.40
24639;BMP180;1641;51.306;12.384;2022-11-15T11:08:59;99739.00;;;15.00
24639;BMP180;1641;51.306;12.384;2022-11-15T11:11:43;99733.00;;;15.10
24639;BMP180;1641;51.306;12.384;2022-11-15T11:14:15;99740.00;;;15.40
24639;BMP180;1641;51.306;12.384;2022-11-15T11:16:45;99735.00;;;15.40
24639;BMP180;1641;51.306;12.384;2022-11-15T11:27:25;99728.00;;;15.90
24639;BMP180;1641;51.306;12.384;2022-11-15T11:33:03;99720.00;;;15.70
24639;BMP180;1641;51.306;12.384;2022-11-15T11:36:15;99708.00;;;15.60
24639;BMP180;1641;51.306;12.384;2022-11-15T11:42:03;99710.00;;;15.60
24639;BMP180;1641;51.306;12.384;2022-11-15T11:47:12;99703.00;;;15.60
24639;BMP180;1641;51.306;12.384;2022-11-15T11:49:50;99686.00;;;15.30
24639;BMP180;1641;51.306;12.384;2022-11-15T11:57:56;99682.00;;;15.50
24639;BMP180;1641;51.306;12.384;2022-11-15T12:00:28;99671.00;;;15.80
24639;BMP180;1641;51.306;12.384;2022-11-15T12:03:14;99675.00;;;15.70
24639;BMP180;1641;51.306;12.384;2022-11-15T12:05:48;99652.00;;;16.20
24639;BMP180;1641;51.306;12.384;2022-11-15T12:13:44;99609.00;;;15.80
24639;BMP180;1641;51.306;12.384;2022-11-15T12:16:16;99655.00;;;15.90
24639;BMP180;1641;51.306;12.384;2022-11-15T12:18:54;99647.00;;;16.30
24639;BMP180;1641;51.306;12.384;2022-11-15T12:27:01;99636.00;;;16.20
24639;BMP180;1641;51.306;12.384;2022-11-15T12:29:48;99633.00;;;16.50
24639;BMP180;1641;51.306;12.384;2022-11-15T12:32:34;99610.00;;;16.60
24639;BMP180;1641;51.306;12.384;2022-11-15T12:35:03;99634.00;;;16.30
24639;BMP180;1641;51.306;12.384;2022-11-15T12:40:23;99625.00;;;16.40
24639;BMP180;1641;51.306;12.384;2022-11-15T12:45:42;99602.00;;;16.60
24639;BMP180;1641;51.306;12.384;2022-11-15T12:58:57;99595.00;;;16.60
24639;BMP180;1641;51.306;12.384;2022-11-15T13:06:47;99551.00;;;17.00
24639;BMP180;1641;51.306;12.384;2022-11-15T13:12:10;99560.00;;;16.80
24639;BMP180;1641;51.306;12.384;2022-11-15T13:14:51;99588.00;;;16.70
24639;BMP180;1641;51.306;12.384;2022-11-15T13:17:27;99556.00;;;17.00
24639;BMP180;1641;51.306;12.384;2022-11-15T13:30:54;99549.00;;;16.80
24639;BMP180;1641;51.306;12.384;2022-11-15T13:33:36;99566.00;;;16.80
24639;BMP180;1641;51.306;12.384;2022-11-15T13:36:09;99586.00;;;17.10
24639;BMP180;1641;51.306;12.384;2022-11-15T13:38:40;99540.00;;;17.20
24639;BMP180;1641;51.306;12.384;2022-11-15T13:41:19;99582.00;;;17.50
24639;BMP180;1641;51.306;12.384;2022-11-15T13:43:46;99543.00;;;17.10
24639;BMP180;1641;51.306;12.384;2022-11-15T13:46:31;99560.00;;;17.40
24639;BMP180;1641;51.306;12.384;2022-11-15T13:49:03;99576.00;;;17.20
24639;BMP180;1641;51.306;12.384;2022-11-15T13:51:36;99580.00;;;17.30
24639;BMP180;1641;51.306;12.384;2022-11-15T13:56:46;99569.00;;;17.00
24639;BMP180;1641;51.306;12.384;2022-11-15T13:59:27;99550.00;;;16.90
24639;BMP180;1641;51.306;12.384;2022-11-15T14:01:58;99530.00;;;16.90
24639;BMP180;1641;51.306;12.384;2022-11-15T14:04:26;99568.00;;;16.90
24639;BMP180;1641;51.306;12.384;2022-11-15T14:06:56;99567.00;;;16.90
24639;BMP180;1641;51.306;12.384;2022-11-15T14:11:52;99561.00;;;16.70
24639;BMP180;1641;51.306;12.384;2022-11-15T14:14:20;99540.00;;;16.70
24639;BMP180;1641;51.306;12.384;2022-11-15T14:16:48;99566.00;;;16.60
24639;BMP180;1641;51.306;12.384;2022-11-15T14:22:46;99545.00;;;16.60
24639;BMP180;1641;51.306;12.384;2022-11-15T14:25:16;99542.00;;;16.80
24639;BMP180;1641;51.306;12.384;2022-11-15T14:27:44;99549.00;;;16.80
24639;BMP180;1641;51.306;12.384;2022-11-15T14:30:15;99509.00;;;16.90
24639;BMP180;1641;51.306;12.384;2022-11-15T14:32:49;99552.00;;;16.50
24639;BMP180;1641;51.306;12.384;2022-11-15T14:35:20;99519.00;;;16.50
24639;BMP180;1641;51.306;12.384;2022-11-15T14:37:46;99494.00;;;16.30
24639;BMP180;1641;51.306;12.384;2022-11-15T14:40:20;99541.00;;;16.70
24639;BMP180;1641;51.306;12.384;2022-11-15T14:42:48;99508.00;;;16.50
24639;BMP180;1641;51.306;12.384;2022-11-15T14:45:18;99498.00;;;16.50
24639;BMP180;1641;51.306;12.384;2022-11-15T14:47:44;99505.00;;;16.50
24639;BMP180;1641;51.306;12.384;2022-11-15T14:50:15;99530.00;;;16.50
24639;BMP180;1641;51.306;12.384;2022-11-15T14:52:41;99471.00;;;16.70
24639;BMP180;1641;51.306;12.384;2022-11-15T14:55:33;99519.00;;;16.50
24639;BMP180;1641;51.306;12.384;2022-11-15T14:58:04;99522.00;;;16.40
24639;BMP180;1641;51.306;12.384;2022-11-15T15:00:31;99492.00;;;16.30
24639;BMP180;1641;51.306;12.384;2022-11-15T15:02:56;99445.00;;;15.90
24639;BMP180;1641;51.306;12.384;2022-11-15T15:07:48;99511.00;;;16.00
24639;BMP180;1641;51.306;12.384;2022-11-15T15:10:14;99506.00;;;15.90
24639;BMP180;1641;51.306;12.384;2022-11-15T15:12:40;99498.00;;;15.80
24639;BMP180;1641;51.306;12.384;2022-11-15T15:15:12;99436.00;;;15.70
24639;BMP180;1641;51.306;12.384;2022-11-15T15:17:39;99444.00;;;15.60
24639;BMP180;1641;51.306;12.384;2022-11-15T15:20:05;99494.00;;;15.70
24639;BMP180;1641;51.306;12.384;2022-11-15T15:22:31;99479.00;;;15.60
24639;BMP180;1641;51.306;12.384;2022-11-15T15:24:59;99473.00;;;15.30
24639;BMP180;1641;51.306;12.384;2022-11-15T15:27:24;99486.00;;;15.50
24639;BMP180;1641;51.306;12.384;2022-11-15T15:29:49;99425.00;;;15.40
24639;BMP180;1641;51.306;12.384;2022-11-15T15:32:15;99471.00;;;15.30
24639;BMP180;1641;51.306;12.384;2022-11-15T15:34:40;99447.00;;;15.30
24639;BMP180;1641;51.306;12.384;2022-11-15T15:37:21;99446.00;;;15.30
24639;BMP180;1641;51.306;12.384;2022-11-15T15:39:54;99415.00;;;15.00
24639;BMP180;1641;51.306;12.384;2022-11-15T15:42:20;99471.00;;;15.00
24639;BMP180;1641;51.306;12.384;2022-11-15T15:44:46;99419.00;;;15.20
24639;BMP180;1641;51.306;12.384;2022-11-15T15:47:22;99399.00;;;15.10
24639;BMP180;1641;51.306;12.384;2022-11-15T15:49:49;99457.00;;;14.80
24639;BMP180;1641;51.306;12.384;2022-11-15T15:52:14;99399.00;;;14.80
24639;BMP180;1641;51.306;12.384;2022-11-15T15:54:41;99458.00;;;14.90
24639;BMP180;1641;51.306;12.384;2022-11-15T15:57:07;99456.00;;;14.80
24639;BMP180;1641;51.306;12.384;2022-11-15T15:59:36;99456.00;;;14.70
24639;BMP180;1641;51.306;12.384;2022-11-15T16:02:11;99453.00;;;14.60
24639;BMP180;1641;51.306;12.384;2022-11-15T16:04:36;99458.00;;;14.70
24639;BMP180;1641;51.306;12.384;2022-11-15T16:07:02;99456.00;;;14.80
24639;BMP180;1641;51.306;12.384;2022-11-15T16:09:30;99439.00;;;14.50
24639;BMP180;1641;51.306;12.384;2022-11-15T16:12:20;99460.00;;;14.70
24639;BMP180;1641;51.306;12.384;2022-11-15T16:14:45;99414.00;;;14.60
24639;BMP180;1641;51.306;12.384;2022-11-15T16:17:17;99433.00;;;14.80
24639;BMP180;1641;51.306;12.384;2022-11-15T16:19:43;99453.00;;;14.80
24639;BMP180;1641;51.306;12.384;2022-11-15T16:22:21;99452.00;;;14.60
24639;BMP180;1641;51.306;12.384;2022-11-15T16:24:46;99400.00;;;14.50
24639;BMP180;1641;51.306;12.384;2022-11-15T16:27:19;99435.00;;;14.40
24639;BMP180;1641;51.306;12.384;2022-11-15T16:29:51;99405.00;;;14.40
24639;BMP180;1641;51.306;12.384;2022-11-15T16:32:22;99401.00;;;14.20
24639;BMP180;1641;51.306;12.384;2022-11-15T16:34:57;99377.00;;;13.90
24639;BMP180;1641;51.306;12.384;2022-11-15T16:37:23;99468.00;;;13.90
24639;BMP180;1641;51.306;12.384;2022-11-15T16:39:49;99470.00;;;14.10